Time;durP1;ratioP1;P1;durP2;ratioP2;P2;SDS_P1;SDS_P2;PMS_P1;PMS_P2;Temp;Humidity;BMP_temperature;BMP_pressure;BME280_temperature;BME280_humidity;BME280_pressure;Samples;Min_cycle;Max_cycle;Signal;HPM_P1;HPM_P2
2022/06/26 00:00:09;;;;;;;2.97;1.60;;;;;;;25.05;48.13;99312.06;4481567;31;33939;-62
2022/06/26 00:02:37;;;;;;;4.60;1.95;;;;;;;24.97;48.35;99312.31;4483075;31;33375;-63
2022/06/26 00:05:07;;;;;;;3.97;1.60;;;;;;;24.92;48.51;99312.12;4485655;31;32368;-62
2022/06/26 00:07:34;;;;;;;4.57;1.90;;;;;;;24.87;48.52;99310.88;4482195;31;32365;-62
2022/06/26 00:10:03;;;;;;;2.65;1.33;;;;;;;24.79;48.80;99313.03;4485713;31;32715;-64
2022/06/26 00:12:30;;;;;;;2.30;1.58;;;;;;;24.64;49.21;99325.06;4487421;31;34695;-61
2022/06/26 00:14:58;;;;;;;3.47;1.70;;;;;;;24.71;49.13;99324.22;4494202;31;33033;-62
2022/06/26 00:17:26;;;;;;;3.28;1.52;;;;;;;24.80;48.94;99329.22;4495175;31;32385;-62
2022/06/26 00:19:53;;;;;;;3.85;1.75;;;;;;;24.72;49.21;99326.75;4493379;31;33660;-62
2022/06/26 00:22:21;;;;;;;3.83;1.50;;;;;;;24.75;49.19;99329.06;4494294;31;33627;-61
2022/06/26 00:24:49;;;;;;;2.53;1.50;;;;;;;24.66;49.29;99329.50;4492540;31;33057;-62
2022/06/26 00:27:16;;;;;;;2.78;1.42;;;;;;;24.48;49.75;99341.12;4491745;31;33561;-63
2022/06/26 00:29:44;;;;;;;3.25;1.85;;;;;;;24.54;49.67;99341.09;4487286;31;32492;-62
2022/06/26 00:32:12;;;;;;;3.03;1.65;;;;;;;24.77;49.04;99337.87;4485745;31;33045;-62
2022/06/26 00:34:40;;;;;;;2.22;1.55;;;;;;;24.72;49.24;99334.09;4487251;31;34400;-62
2022/06/26 00:37:07;;;;;;;3.35;1.70;;;;;;;24.81;48.90;99336.38;4490711;31;33320;-62
2022/06/26 00:39:35;;;;;;;3.30;1.65;;;;;;;24.73;49.20;99346.75;4495192;31;35460;-62
2022/06/26 00:42:04;;;;;;;2.80;1.80;;;;;;;24.70;49.24;99345.28;4483889;31;32848;-64
2022/06/26 00:44:32;;;;;;;2.92;1.60;;;;;;;24.77;49.00;99339.75;4492097;31;33145;-64
2022/06/26 00:46:59;;;;;;;4.15;1.70;;;;;;;24.83;48.83;99341.62;4487343;31;33816;-62
2022/06/26 00:49:28;;;;;;;3.92;1.90;;;;;;;24.63;49.42;99338.97;4486468;31;32308;-63
2022/06/26 00:51:56;;;;;;;2.62;1.60;;;;;;;24.74;49.06;99343.78;4493327;31;34959;-63
2022/06/26 00:54:26;;;;;;;3.33;1.85;;;;;;;24.84;48.69;99344.16;4493776;31;33910;-63
2022/06/26 00:56:58;;;;;;;5.18;1.58;;;;;;;24.76;48.93;99349.88;4492933;31;34303;-63
2022/06/26 00:59:27;;;;;;;3.28;1.80;;;;;;;24.69;49.22;99345.47;4486585;31;33532;-63
2022/06/26 01:01:54;;;;;;;5.80;2.33;;;;;;;24.55;49.49;99351.00;4486857;31;35054;-63
2022/06/26 01:04:22;;;;;;;3.10;1.85;;;;;;;24.47;49.58;99361.34;4489944;31;33302;-64
2022/06/26 01:06:51;;;;;;;2.80;1.65;;;;;;;24.43;49.73;99360.06;4499378;31;33646;-63
2022/06/26 01:09:19;;;;;;;5.18;1.75;;;;;;;24.43;49.65;99360.06;4496876;31;33762;-62
2022/06/26 01:11:46;;;;;;;2.45;1.73;;;;;;;24.48;49.55;99361.13;4495180;31;34954;-63
2022/06/26 01:14:15;;;;;;;4.15;2.00;;;;;;;24.27;50.01;99362.19;4487524;31;33185;-61
2022/06/26 01:16:43;;;;;;;3.17;1.80;;;;;;;24.37;49.64;99353.56;4488614;31;32483;-63
2022/06/26 01:19:15;;;;;;;4.10;2.05;;;;;;;24.39;49.50;99354.16;4489073;31;32575;-64
2022/06/26 01:21:43;;;;;;;2.67;1.50;;;;;;;24.37;49.63;99364.50;4497809;31;34082;-65
2022/06/26 01:24:11;;;;;;;3.17;1.70;;;;;;;24.33;49.66;99363.22;4499835;31;32387;-65
2022/06/26 01:26:41;;;;;;;2.92;2.00;;;;;;;24.36;49.62;99365.53;4498750;31;33688;-64
2022/06/26 01:29:09;;;;;;;2.83;1.42;;;;;;;24.32;49.61;99369.75;4500538;31;33752;-62
2022/06/26 01:31:37;;;;;;;3.83;1.75;;;;;;;24.24;49.72;99368.09;4493545;31;32846;-64
2022/06/26 01:34:07;;;;;;;6.37;2.35;;;;;;;24.30;49.50;99369.09;4499163;31;33245;-62
2022/06/26 01:36:35;;;;;;;4.18;2.20;;;;;;;24.18;49.81;99366.19;4493454;31;33979;-64
2022/06/26 01:39:03;;;;;;;3.70;1.87;;;;;;;23.87;50.51;99361.37;4490328;31;34151;-64
2022/06/26 01:41:31;;;;;;;4.25;2.15;;;;;;;24.14;49.72;99364.91;4487510;31;33885;-63
2022/06/26 01:44:00;;;;;;;3.60;2.40;;;;;;;24.09;49.86;99365.56;4486668;31;32224;-65
2022/06/26 01:46:27;;;;;;;4.00;2.37;;;;;;;24.13;49.70;99372.28;4492451;31;33840;-63
2022/06/26 01:48:56;;;;;;;4.53;2.47;;;;;;;24.15;49.58;99364.72;4496063;31;34006;-62
2022/06/26 01:51:24;;;;;;;4.35;2.10;;;;;;;23.99;50.06;99367.06;4493999;31;33583;-63
2022/06/26 01:53:51;;;;;;;3.58;2.20;;;;;;;24.10;49.73;99369.13;4496864;31;32378;-62
2022/06/26 01:56:19;;;;;;;4.43;2.47;;;;;;;23.98;50.16;99370.81;4489882;31;33858;-61
2022/06/26 01:58:47;;;;;;;5.20;2.17;;;;;;;23.98;50.10;99373.56;4492677;31;35584;-63
2022/06/26 02:01:15;;;;;;;3.37;2.17;;;;;;;23.91;50.39;99379.84;4485237;31;34762;-64
2022/06/26 02:03:43;;;;;;;3.30;1.98;;;;;;;23.99;50.20;99378.81;4489540;31;33358;-64
2022/06/26 02:06:11;;;;;;;4.45;2.20;;;;;;;23.84;50.80;99384.47;4491858;31;33486;-62
2022/06/26 02:08:38;;;;;;;3.28;1.90;;;;;;;23.93;50.42;99380.50;4495775;31;34160;-64
2022/06/26 02:13:54;;;;;;;4.00;2.30;;;;;;;23.88;50.72;99383.03;4494235;31;33365;-64
2022/06/26 02:16:30;;;;;;;3.62;2.10;;;;;;;23.81;50.73;99384.06;4488608;31;35099;-63
2022/06/26 02:18:58;;;;;;;5.12;2.30;;;;;;;23.67;51.16;99384.03;4493477;31;34145;-63
2022/06/26 02:21:28;;;;;;;3.70;2.12;;;;;;;23.67;51.15;99388.66;4494670;31;34920;-62
2022/06/26 02:23:56;;;;;;;5.35;2.30;;;;;;;23.83;50.61;99393.75;4494817;31;34033;-65
2022/06/26 02:26:24;;;;;;;4.28;2.37;;;;;;;23.79;50.92;99388.88;4493164;31;34817;-63
2022/06/26 02:28:53;;;;;;;3.78;2.10;;;;;;;23.70;51.26;99391.84;4497284;31;33830;-63
2022/06/26 02:31:21;;;;;;;6.50;2.53;;;;;;;23.72;51.16;99399.81;4494974;31;33634;-62
2022/06/26 02:33:49;;;;;;;3.92;2.33;;;;;;;23.63;51.56;99398.31;4498046;31;33079;-62
2022/06/26 02:36:16;;;;;;;4.75;2.58;;;;;;;23.55;51.74;99395.78;4497321;31;32438;-64
2022/06/26 02:38:44;;;;;;;4.07;2.17;;;;;;;23.35;52.30;99399.31;4494617;31;34885;-63
2022/06/26 02:41:12;;;;;;;3.75;2.25;;;;;;;23.64;51.64;99400.00;4489145;31;34720;-64
2022/06/26 02:43:41;;;;;;;5.37;2.58;;;;;;;23.63;51.76;99390.97;4484576;31;33390;-63
2022/06/26 02:46:09;;;;;;;4.62;2.62;;;;;;;23.65;51.81;99391.56;4491243;31;33759;-62
2022/06/26 02:48:38;;;;;;;4.65;2.92;;;;;;;23.46;52.54;99393.22;4492607;31;34906;-63
2022/06/26 02:51:05;;;;;;;5.75;2.65;;;;;;;23.46;52.48;99408.78;4489063;31;33712;-64
2022/06/26 02:53:33;;;;;;;4.57;3.10;;;;;;;23.36;52.87;99405.59;4497304;31;33346;-66
2022/06/26 02:56:01;;;;;;;5.37;3.15;;;;;;;23.33;52.87;99404.13;4487362;31;33950;-67
2022/06/26 02:58:28;;;;;;;4.35;2.85;;;;;;;23.38;52.77;99419.91;4494547;31;35057;-63
2022/06/26 03:00:56;;;;;;;4.95;3.42;;;;;;;23.29;52.91;99408.31;4493843;31;33777;-63
2022/06/26 03:03:24;;;;;;;4.97;3.15;;;;;;;23.31;53.01;99422.59;4488825;31;33156;-63
2022/06/26 03:05:52;;;;;;;6.10;3.03;;;;;;;23.37;52.80;99424.53;4486058;31;34241;-66
2022/06/26 03:08:21;;;;;;;5.28;2.60;;;;;;;23.47;52.59;99440.53;4486234;31;32887;-66
2022/06/26 03:10:50;;;;;;;5.10;3.00;;;;;;;23.55;52.38;99434.84;4487002;31;33741;-64
2022/06/26 03:13:18;;;;;;;5.60;3.12;;;;;;;23.62;52.10;99434.88;4493483;31;33305;-65
2022/06/26 03:15:45;;;;;;;4.20;2.60;;;;;;;23.66;52.03;99426.06;4488375;31;33635;-67
2022/06/26 03:18:13;;;;;;;4.47;2.37;;;;;;;23.67;52.06;99430.47;4494379;31;32696;-64
2022/06/26 03:20:41;;;;;;;5.18;3.08;;;;;;;23.76;51.98;99439.34;4495062;31;32027;-63
2022/06/26 03:23:09;;;;;;;4.90;2.60;;;;;;;23.71;52.13;99441.84;4494328;31;33267;-66
2022/06/26 03:25:37;;;;;;;4.90;2.58;;;;;;;23.77;52.05;99442.94;4491278;31;32914;-67
2022/06/26 03:28:05;;;;;;;5.40;2.80;;;;;;;23.69;52.45;99433.88;4482135;32;32376;-63
2022/06/26 03:30:36;;;;;;;6.40;3.28;;;;;;;23.97;51.72;99451.16;4494452;31;33846;-65
2022/06/26 03:33:04;;;;;;;4.70;2.78;;;;;;;24.00;51.57;99446.09;4491758;31;31995;-65
2022/06/26 03:35:32;;;;;;;5.12;3.00;;;;;;;24.11;51.23;99447.38;4490296;31;32506;-68
2022/06/26 03:38:01;;;;;;;4.25;2.87;;;;;;;24.01;51.40;99450.50;4495626;31;35075;-64
2022/06/26 03:40:29;;;;;;;5.05;2.92;;;;;;;24.08;51.13;99445.91;4492805;31;33640;-64
2022/06/26 03:42:57;;;;;;;5.10;3.00;;;;;;;24.09;51.12;99447.59;4489421;31;34060;-64
2022/06/26 03:45:25;;;;;;;5.85;2.97;;;;;;;24.09;51.28;99457.69;4494301;31;33226;-66
2022/06/26 03:47:52;;;;;;;5.18;3.12;;;;;;;24.19;50.96;99452.63;4495109;31;33923;-64
2022/06/26 03:50:20;;;;;;;5.32;3.60;;;;;;;24.12;51.03;99451.78;4495242;31;34912;-64
2022/06/26 03:52:48;;;;;;;4.80;3.30;;;;;;;24.08;51.13;99451.38;4487493;31;33428;-63
2022/06/26 03:55:17;;;;;;;5.18;3.15;;;;;;;24.12;51.07;99454.53;4488475;31;33889;-64
2022/06/26 03:57:45;;;;;;;4.53;2.80;;;;;;;24.12;51.13;99466.31;4481711;32;34253;-63
2022/06/26 04:00:12;;;;;;;5.93;3.17;;;;;;;24.14;51.12;99457.88;4494793;31;33673;-64
2022/06/26 04:02:42;;;;;;;6.03;3.58;;;;;;;23.81;51.98;99461.41;4497561;31;34348;-63
2022/06/26 04:05:10;;;;;;;5.40;3.03;;;;;;;23.77;52.27;99451.97;4483384;31;33836;-63
2022/06/26 04:07:38;;;;;;;5.47;2.60;;;;;;;23.84;52.34;99450.06;4490009;31;34050;-63
2022/06/26 04:10:07;;;;;;;4.55;2.65;;;;;;;23.97;52.06;99442.94;4492483;31;33738;-62
2022/06/26 04:12:34;;;;;;;4.68;2.83;;;;;;;24.02;52.15;99440.44;4493136;31;34508;-61
2022/06/26 04:15:03;;;;;;;3.83;2.53;;;;;;;24.21;51.86;99446.97;4480916;31;33690;-62
2022/06/26 04:17:31;;;;;;;4.55;2.62;;;;;;;24.31;51.73;99445.47;4495760;31;34131;-62
2022/06/26 04:20:00;;;;;;;4.95;3.00;;;;;;;24.43;51.53;99453.94;4496344;31;33901;-61
2022/06/26 04:22:28;;;;;;;6.80;2.87;;;;;;;24.54;51.37;99452.44;4496783;31;34359;-64
2022/06/26 04:24:56;;;;;;;5.43;3.20;;;;;;;24.50;51.56;99456.66;4494167;31;33722;-62
2022/06/26 04:27:23;;;;;;;4.03;2.42;;;;;;;24.52;51.63;99447.16;4484478;31;34119;-64
2022/06/26 04:29:51;;;;;;;4.97;2.83;;;;;;;24.67;51.63;99452.41;4495348;31;33442;-61
2022/06/26 04:32:18;;;;;;;5.50;2.80;;;;;;;24.40;52.70;99457.06;4492646;31;32296;-63
2022/06/26 04:34:46;;;;;;;5.70;2.62;;;;;;;24.55;52.43;99452.22;4494094;31;35478;-64
2022/06/26 04:37:14;;;;;;;4.82;2.75;;;;;;;24.61;52.67;99445.06;4493367;31;33832;-63
2022/06/26 04:39:41;;;;;;;3.78;2.42;;;;;;;24.54;52.94;99450.53;4496522;31;33998;-63
2022/06/26 04:42:09;;;;;;;4.87;2.58;;;;;;;24.87;52.25;99452.37;4494924;31;34639;-65
2022/06/26 04:44:37;;;;;;;3.60;2.33;;;;;;;25.14;51.40;99450.44;4493926;31;33702;-66
2022/06/26 04:47:04;;;;;;;5.15;2.75;;;;;;;25.24;50.73;99450.81;4498695;31;33999;-63
2022/06/26 04:49:32;;;;;;;5.20;2.83;;;;;;;25.06;51.25;99456.94;4496070;31;32632;-65
2022/06/26 04:52:00;;;;;;;4.03;2.50;;;;;;;25.36;50.56;99459.19;4497521;31;34042;-65
2022/06/26 04:54:28;;;;;;;4.10;2.60;;;;;;;25.49;50.18;99459.13;4496314;31;34041;-64
2022/06/26 04:56:56;;;;;;;4.70;2.72;;;;;;;25.43;50.31;99453.69;4499029;31;34423;-63
2022/06/26 04:59:23;;;;;;;4.15;2.50;;;;;;;25.23;51.14;99456.47;4492341;31;35136;-64
2022/06/26 05:01:56;;;;;;;3.40;2.15;;;;;;;25.58;50.34;99461.59;4495938;31;31407;-61
2022/06/26 05:04:25;;;;;;;5.57;2.40;;;;;;;25.67;50.11;99454.81;4492955;31;33691;-64
2022/06/26 05:06:53;;;;;;;4.62;2.10;;;;;;;25.81;50.05;99464.69;4497789;31;33854;-62
2022/06/26 05:09:22;;;;;;;4.87;2.00;;;;;;;26.02;49.62;99453.31;4493358;31;32503;-62
2022/06/26 05:11:50;;;;;;;3.97;2.03;;;;;;;25.77;50.12;99461.47;4498196;31;33287;-62
2022/06/26 05:14:18;;;;;;;3.92;2.33;;;;;;;26.04;49.54;99449.53;4493898;31;33836;-62
2022/06/26 05:16:46;;;;;;;2.92;2.03;;;;;;;25.83;50.21;99462.53;4492919;31;35009;-62
2022/06/26 05:19:14;;;;;;;4.20;2.58;;;;;;;25.72;50.56;99460.47;4496879;31;33485;-61
2022/06/26 05:21:43;;;;;;;4.87;2.35;;;;;;;25.89;50.53;99469.03;4491704;31;34455;-64
2022/06/26 05:24:11;;;;;;;4.80;2.78;;;;;;;25.71;50.78;99461.50;4496023;31;33834;-63
2022/06/26 05:26:44;;;;;;;4.22;2.37;;;;;;;26.11;49.93;99464.03;4488662;31;34059;-63
2022/06/26 05:29:12;;;;;;;5.50;2.30;;;;;;;25.90;50.76;99468.81;4493264;31;33918;-62
2022/06/26 05:31:40;;;;;;;5.18;3.03;;;;;;;26.22;49.58;99463.31;4495029;31;33718;-61
2022/06/26 05:34:09;;;;;;;5.20;2.92;;;;;;;26.30;49.65;99474.00;4500587;31;33767;-63
2022/06/26 05:36:38;;;;;;;4.65;2.62;;;;;;;26.06;49.58;99470.19;4493548;31;32602;-62
2022/06/26 05:39:07;;;;;;;4.60;2.53;;;;;;;26.43;49.02;99462.91;4497309;31;33816;-61
2022/06/26 05:41:34;;;;;;;4.50;2.80;;;;;;;26.59;48.87;99466.19;4487023;31;31801;-61
2022/06/26 05:44:02;;;;;;;4.37;2.70;;;;;;;26.37;49.59;99462.97;4489586;31;33643;-63
2022/06/26 05:46:30;;;;;;;4.18;2.40;;;;;;;26.54;49.25;99469.59;4489051;31;35266;-62
2022/06/26 05:48:58;;;;;;;4.57;3.10;;;;;;;26.56;48.69;99472.97;4492415;31;34763;-63
2022/06/26 05:51:26;;;;;;;4.35;2.83;;;;;;;26.54;48.77;99464.12;4488600;31;33198;-63
2022/06/26 05:53:54;;;;;;;5.90;2.58;;;;;;;26.45;49.69;99454.44;4495873;31;33852;-69
2022/06/26 05:56:22;;;;;;;3.87;2.58;;;;;;;26.22;49.32;99472.38;4495211;31;33667;-62
2022/06/26 05:58:50;;;;;;;4.30;2.85;;;;;;;26.28;49.19;99461.56;4497924;31;34647;-61
2022/06/26 06:01:18;;;;;;;5.07;3.12;;;;;;;25.75;50.87;99466.34;4495299;31;34216;-61
2022/06/26 06:03:46;;;;;;;5.47;2.62;;;;;;;26.24;49.79;99464.75;4492250;31;33738;-62
2022/06/26 06:06:14;;;;;;;5.47;2.60;;;;;;;26.30;49.93;99471.28;4486609;31;34960;-64
2022/06/26 06:08:42;;;;;;;4.53;2.50;;;;;;;26.31;49.09;99467.44;4491714;31;33811;-62
2022/06/26 06:11:10;;;;;;;3.85;2.30;;;;;;;26.32;49.56;99474.59;4490014;31;33918;-63
2022/06/26 06:13:38;;;;;;;5.40;2.90;;;;;;;25.87;50.03;99471.97;4486402;31;32743;-64
2022/06/26 06:16:06;;;;;;;4.07;2.75;;;;;;;26.56;48.79;99475.72;4487615;31;33867;-64
2022/06/26 06:18:34;;;;;;;3.72;2.42;;;;;;;26.70;48.22;99470.94;4495185;31;34129;-64
2022/06/26 06:21:07;;;;;;;3.03;1.98;;;;;;;26.23;49.68;99479.56;4496154;31;34414;-64
2022/06/26 06:23:39;;;;;;;4.07;2.25;;;;;;;26.91;48.12;99484.22;4492243;31;33689;-63
2022/06/26 06:26:06;;;;;;;5.05;2.40;;;;;;;27.16;47.21;99480.63;4486657;31;32782;-63
2022/06/26 06:28:34;;;;;;;3.95;2.10;;;;;;;27.26;47.04;99483.66;4486234;31;33443;-64
2022/06/26 06:31:02;;;;;;;3.67;2.00;;;;;;;27.54;46.53;99482.25;4497406;31;34508;-63
2022/06/26 06:33:29;;;;;;;2.90;1.92;;;;;;;27.19;46.75;99482.87;4488457;31;33399;-63
2022/06/26 06:35:57;;;;;;;2.60;1.67;;;;;;;26.89;47.40;99485.53;4495293;31;34051;-64
2022/06/26 06:38:26;;;;;;;3.15;1.90;;;;;;;27.04;46.29;99487.91;4485033;31;33804;-64
2022/06/26 06:40:54;;;;;;;3.42;2.05;;;;;;;26.93;46.61;99490.34;4486416;31;33941;-64
2022/06/26 06:43:21;;;;;;;4.05;2.00;;;;;;;26.98;45.97;99492.41;4491936;31;34036;-63
2022/06/26 06:45:50;;;;;;;2.87;1.67;;;;;;;27.38;45.99;99498.31;4489120;31;33734;-63
2022/06/26 06:48:20;;;;;;;3.17;1.90;;;;;;;27.12;45.01;99499.41;4485907;31;33742;-61
2022/06/26 06:51:02;;;;;;;3.37;1.73;;;;;;;27.15;45.24;99498.16;4486150;31;32945;-64
2022/06/26 06:53:30;;;;;;;3.17;1.75;;;;;;;27.34;44.91;99516.31;4490436;31;33817;-61
2022/06/26 06:55:58;;;;;;;2.70;1.55;;;;;;;27.71;44.49;99507.22;4493444;31;35056;-63
2022/06/26 06:58:25;;;;;;;2.28;1.60;;;;;;;27.08;45.60;99500.09;4490625;31;34692;-63
2022/06/26 07:00:53;;;;;;;3.10;1.92;;;;;;;27.68;43.06;99507.66;4494686;31;34321;-62
2022/06/26 07:03:21;;;;;;;2.28;1.42;;;;;;;27.91;42.53;99506.97;4487163;31;32500;-64
2022/06/26 07:05:49;;;;;;;4.70;1.87;;;;;;;27.64;43.34;99521.87;4491631;31;34017;-63
2022/06/26 07:08:17;;;;;;;2.22;1.40;;;;;;;27.80;43.33;99512.19;4487574;31;33320;-64
2022/06/26 07:10:44;;;;;;;2.28;1.40;;;;;;;27.56;43.18;99508.44;4487014;31;33682;-64
2022/06/26 07:13:12;;;;;;;2.47;1.42;;;;;;;27.84;42.50;99502.38;4491399;31;35027;-62
2022/06/26 07:15:40;;;;;;;2.40;1.65;;;;;;;27.68;43.42;99499.44;4485462;31;34958;-63
2022/06/26 07:18:08;;;;;;;1.45;1.20;;;;;;;27.74;43.73;99502.09;4496133;31;34306;-62
2022/06/26 07:20:35;;;;;;;4.78;1.87;;;;;;;27.65;44.02;99503.47;4485904;31;32746;-64
2022/06/26 07:23:03;;;;;;;3.90;1.65;;;;;;;27.75;42.81;99505.66;4490312;31;34850;-62
2022/06/26 07:25:32;;;;;;;3.67;1.40;;;;;;;28.29;42.18;99509.34;4491116;31;33862;-64
2022/06/26 07:27:59;;;;;;;3.62;1.50;;;;;;;27.94;42.91;99512.00;4487407;31;33882;-62
2022/06/26 07:30:31;;;;;;;1.87;1.40;;;;;;;28.15;41.71;99507.84;4479344;31;159273;-62
2022/06/26 07:33:03;;;;;;;3.42;1.60;;;;;;;27.90;42.94;99508.88;4485900;31;33227;-61
2022/06/26 07:35:31;;;;;;;2.03;1.35;;;;;;;28.02;41.77;99512.47;4496205;31;34036;-62
2022/06/26 07:38:01;;;;;;;3.00;1.55;;;;;;;28.21;40.89;99506.91;4489855;31;34670;-63
2022/06/26 07:40:28;;;;;;;2.05;1.20;;;;;;;28.44;40.73;99514.41;4493907;31;34992;-62
2022/06/26 07:42:56;;;;;;;5.20;1.40;;;;;;;28.24;41.58;99511.94;4486507;31;32211;-63
2022/06/26 07:45:29;;;;;;;2.37;1.50;;;;;;;28.39;41.09;99506.00;4492219;31;32824;-62
2022/06/26 07:47:57;;;;;;;2.92;1.52;;;;;;;28.54;40.00;99503.69;4486489;31;34699;-62
2022/06/26 07:50:25;;;;;;;2.72;1.62;;;;;;;28.85;39.65;99499.72;4490196;31;33281;-63
2022/06/26 07:52:52;;;;;;;2.60;1.20;;;;;;;28.80;38.93;99496.84;4491037;31;32365;-64
2022/06/26 07:55:20;;;;;;;3.85;1.37;;;;;;;28.93;39.63;99501.28;4494401;31;33959;-63
2022/06/26 07:57:48;;;;;;;1.80;1.15;;;;;;;28.89;38.42;99494.56;4491145;31;33762;-62
2022/06/26 08:00:16;;;;;;;3.67;1.50;;;;;;;28.56;38.93;99499.59;4483201;31;32159;-62
2022/06/26 08:02:43;;;;;;;2.30;1.30;;;;;;;28.83;37.76;99501.03;4485142;31;34353;-64
2022/06/26 08:05:11;;;;;;;6.78;1.37;;;;;;;28.34;39.60;99503.94;4488556;31;34247;-64
2022/06/26 08:07:38;;;;;;;3.22;1.50;;;;;;;28.78;39.01;99504.50;4492966;31;34365;-62
2022/06/26 08:10:07;;;;;;;2.45;1.30;;;;;;;29.09;38.60;99499.75;4492993;31;31404;-62
2022/06/26 08:12:34;;;;;;;3.50;1.62;;;;;;;29.00;37.99;99497.34;4494839;31;33577;-62
2022/06/26 08:15:03;;;;;;;3.37;1.20;;;;;;;29.42;37.08;99508.16;4485148;31;35264;-64
2022/06/26 08:17:30;;;;;;;2.08;1.08;;;;;;;29.23;36.85;99503.91;4486213;31;33937;-64
2022/06/26 08:19:58;;;;;;;2.55;1.20;;;;;;;29.28;36.79;99503.16;4490973;31;33023;-62
2022/06/26 08:22:26;;;;;;;3.95;1.50;;;;;;;29.12;36.92;99504.78;4490764;31;33873;-64
2022/06/26 08:24:54;;;;;;;1.85;1.20;;;;;;;29.55;36.73;99511.75;4483735;31;34737;-63
2022/06/26 08:27:21;;;;;;;2.47;1.02;;;;;;;29.37;36.46;99507.22;4488990;31;34717;-62
2022/06/26 08:29:49;;;;;;;1.48;1.10;;;;;;;29.47;35.78;99507.44;4490768;31;32099;-62
2022/06/26 08:32:17;;;;;;;1.85;1.20;;;;;;;29.55;35.57;99506.22;4489961;31;33855;-64
2022/06/26 08:34:44;;;;;;;5.93;2.05;;;;;;;29.97;34.79;99506.81;4481828;31;33719;-62
2022/06/26 08:37:12;;;;;;;2.65;1.37;;;;;;;29.47;36.37;99511.06;4487801;31;33922;-62
2022/06/26 08:39:40;;;;;;;2.70;1.20;;;;;;;29.61;35.97;99506.13;4492540;31;33216;-63
2022/06/26 08:42:08;;;;;;;2.72;1.20;;;;;;;30.04;34.89;99506.66;4498729;31;32201;-63
2022/06/26 08:44:42;;;;;;;2.10;1.10;;;;;;;29.83;35.66;99506.28;4496888;31;35151;-63
2022/06/26 08:47:11;;;;;;;2.37;1.40;;;;;;;29.94;35.06;99505.37;4494932;31;32847;-63
2022/06/26 08:49:42;;;;;;;1.87;1.12;;;;;;;29.86;34.54;99508.53;4495825;31;33381;-64
2022/06/26 08:52:13;;;;;;;1.95;1.02;;;;;;;29.64;36.57;99500.09;4495900;31;32638;-64
2022/06/26 08:54:41;;;;;;;2.80;1.20;;;;;;;30.01;34.73;99513.50;4496606;31;33121;-61
2022/06/26 08:57:08;;;;;;;1.50;1.10;;;;;;;29.96;34.33;99502.38;4491532;31;33863;-63
2022/06/26 08:59:36;;;;;;;2.30;1.10;;;;;;;30.04;33.81;99501.97;4485577;31;32134;-62
2022/06/26 09:02:04;;;;;;;1.27;0.82;;;;;;;30.28;33.33;99505.47;4486342;31;34326;-63
2022/06/26 09:04:32;;;;;;;2.28;1.23;;;;;;;30.16;33.80;99499.97;4482227;31;34461;-63
2022/06/26 09:07:00;;;;;;;1.70;1.10;;;;;;;29.53;34.94;99505.63;4483662;31;33981;-64
2022/06/26 09:09:28;;;;;;;1.95;1.10;;;;;;;30.44;33.51;99505.75;4484755;31;33288;-62
2022/06/26 09:11:58;;;;;;;1.73;1.00;;;;;;;30.38;33.45;99502.88;4484159;31;34850;-62
2022/06/26 09:14:28;;;;;;;2.53;1.30;;;;;;;30.49;32.02;99494.75;4491817;31;32747;-62
2022/06/26 09:16:56;;;;;;;1.92;1.23;;;;;;;30.63;31.73;99499.69;4484673;31;32339;-64
2022/06/26 09:19:28;;;;;;;1.87;1.10;;;;;;;30.56;31.94;99498.19;4487724;31;33659;-63
2022/06/26 09:22:11;;;;;;;2.58;1.33;;;;;;;30.47;32.33;99492.25;4492818;31;33897;-62
2022/06/26 09:24:40;;;;;;;2.55;1.33;;;;;;;30.24;33.68;99504.31;4493156;31;32725;-63
2022/06/26 09:27:10;;;;;;;6.18;1.60;;;;;;;30.60;32.60;99504.91;4500587;31;34757;-63
2022/06/26 09:29:39;;;;;;;3.05;1.60;;;;;;;31.08;32.09;99500.69;4496168;31;33340;-62
2022/06/26 09:32:12;;;;;;;1.80;1.00;;;;;;;31.54;31.72;99493.81;4491783;31;32481;-64
2022/06/26 09:34:46;;;;;;;3.03;1.30;;;;;;;31.02;32.96;99501.69;4499551;31;35246;-63
2022/06/26 09:37:14;;;;;;;1.67;1.20;;;;;;;31.19;32.19;99501.62;4490601;31;32550;-64
2022/06/26 09:40:05;;;;;;;2.37;1.20;;;;;;;31.91;30.49;99493.19;4487745;31;34662;-63
2022/06/26 09:42:34;;;;;;;2.33;1.42;;;;;;;31.59;30.43;99494.97;4493100;31;33241;-63
2022/06/26 09:45:04;;;;;;;3.35;1.40;;;;;;;32.17;30.52;99498.97;4487465;31;31271;-63
2022/06/26 09:47:35;;;;;;;4.45;1.30;;;;;;;31.93;31.36;99498.44;4487051;31;34990;-64
2022/06/26 09:50:07;;;;;;;1.27;0.85;;;;;;;32.53;30.60;99499.31;4499450;31;34440;-64
2022/06/26 09:52:34;;;;;;;2.33;1.17;;;;;;;32.72;29.03;99496.97;4499934;31;32667;-62
2022/06/26 09:55:04;;;;;;;3.53;1.33;;;;;;;32.69;29.10;99484.47;4485708;32;32797;-62
2022/06/26 09:57:32;;;;;;;2.50;1.42;;;;;;;32.73;28.81;99485.59;4483161;31;33654;-62
2022/06/26 10:00:01;;;;;;;1.30;1.02;;;;;;;32.75;29.43;99496.44;4490036;31;33688;-63
2022/06/26 10:08:13;;;;;;;1.98;1.00;;;;;;;33.33;28.62;99491.81;4498403;31;34707;-64
2022/06/26 10:10:41;;;;;;;1.65;0.93;;;;;;;33.46;28.46;99493.25;4492523;31;34333;-62
2022/06/26 10:13:09;;;;;;;1.58;1.20;;;;;;;33.68;28.27;99490.28;4497318;31;32131;-64
2022/06/26 10:15:59;;;;;;;2.15;1.33;;;;;;;33.96;27.75;99487.00;4501032;31;34033;-63
2022/06/26 10:18:38;;;;;;;3.08;1.60;;;;;;;33.41;27.96;99482.94;4499794;31;35007;-62
2022/06/26 10:21:12;;;;;;;3.83;1.30;;;;;;;33.89;28.72;99482.84;4497919;31;33390;-63
2022/06/26 10:23:42;;;;;;;3.22;1.30;;;;;;;34.18;26.53;99483.19;4490407;31;35258;-64
2022/06/26 10:26:12;;;;;;;2.92;1.52;;;;;;;33.56;27.69;99480.25;4493064;31;32403;-61
2022/06/26 10:28:55;;;;;;;4.90;1.65;;;;;;;33.72;27.08;99483.91;4498215;31;34418;-62
2022/06/26 10:31:23;;;;;;;2.58;1.27;;;;;;;33.40;28.57;99482.13;4495450;31;33707;-63
2022/06/26 10:33:51;;;;;;;2.45;1.30;;;;;;;33.59;27.26;99478.88;4493909;31;31857;-61
2022/06/26 10:36:23;;;;;;;1.92;1.10;;;;;;;33.57;27.66;99481.91;4493034;31;32906;-63
2022/06/26 10:38:51;;;;;;;2.08;1.10;;;;;;;34.13;26.90;99475.72;4494741;31;33936;-62
2022/06/26 10:44:10;;;;;;;2.37;1.30;;;;;;;34.31;25.88;99472.34;4498033;31;34602;-63
2022/06/26 10:46:39;;;;;;;2.47;1.40;;;;;;;33.98;27.05;99468.16;4487484;31;34076;-61
2022/06/26 10:49:08;;;;;;;2.72;1.40;;;;;;;34.27;26.76;99470.44;4498709;31;34108;-63
2022/06/26 10:51:39;;;;;;;2.45;1.20;;;;;;;34.16;26.56;99469.59;4497793;31;35773;-62
2022/06/26 10:54:18;;;;;;;2.47;1.27;;;;;;;33.96;26.56;99467.56;4499079;31;33723;-62
2022/06/26 10:56:46;;;;;;;3.65;1.40;;;;;;;33.88;26.80;99473.69;4499230;31;32397;-62
2022/06/26 10:59:17;;;;;;;3.17;1.30;;;;;;;33.55;27.69;99470.28;4497016;31;33481;-62
2022/06/26 11:01:45;;;;;;;1.95;1.25;;;;;;;33.87;28.05;99472.03;4491084;31;33232;-62
2022/06/26 11:04:13;;;;;;;6.65;1.85;;;;;;;33.92;28.03;99476.75;4491429;31;32513;-62
2022/06/26 11:06:41;;;;;;;1.65;1.15;;;;;;;33.80;29.17;99480.59;4499136;31;33697;-61
2022/06/26 11:09:09;;;;;;;2.95;1.50;;;;;;;33.68;28.28;99485.59;4481846;31;32298;-63
2022/06/26 11:11:36;;;;;;;2.58;1.40;;;;;;;33.54;27.66;99476.91;4494699;31;31942;-63
2022/06/26 11:14:08;;;;;;;4.05;1.65;;;;;;;33.78;28.14;99480.06;4498523;31;33953;-63
2022/06/26 11:16:44;;;;;;;3.75;1.83;;;;;;;33.63;27.31;99480.00;4496188;31;34192;-64
2022/06/26 11:19:32;;;;;;;3.47;1.35;;;;;;;33.32;27.44;99479.00;4487181;31;34756;-64
2022/06/26 11:22:17;;;;;;;1.90;1.30;;;;;;;33.61;27.65;99471.97;4494477;31;33517;-62
2022/06/26 11:24:49;;;;;;;2.22;1.30;;;;;;;33.27;27.74;99476.25;4495991;31;34879;-62
2022/06/26 11:27:27;;;;;;;3.35;1.80;;;;;;;33.20;28.95;99472.88;4484808;31;32613;-62
2022/06/26 11:29:54;;;;;;;2.10;1.45;;;;;;;33.33;28.37;99473.22;4498211;31;32474;-64
2022/06/26 11:32:23;;;;;;;4.78;1.60;;;;;;;33.41;27.54;99469.06;4494385;31;33320;-62
2022/06/26 11:34:53;;;;;;;5.95;1.62;;;;;;;32.68;28.18;99468.91;4492440;31;35072;-65
2022/06/26 11:37:37;;;;;;;2.90;1.45;;;;;;;33.03;28.43;99470.28;4486159;31;32725;-64
2022/06/26 11:40:17;;;;;;;4.20;1.52;;;;;;;33.22;28.14;99467.87;4489179;31;33299;-62
2022/06/26 11:42:45;;;;;;;3.30;1.55;;;;;;;33.31;28.81;99460.72;4493392;31;33051;-62
2022/06/26 11:45:21;;;;;;;2.62;1.42;;;;;;;33.23;28.78;99464.84;4497198;31;34009;-64
2022/06/26 11:47:49;;;;;;;3.60;1.80;;;;;;;32.99;29.79;99458.06;4496779;31;33804;-63
2022/06/26 11:50:20;;;;;;;4.60;1.90;;;;;;;33.13;29.39;99457.31;4492255;31;33873;-63
2022/06/26 11:52:52;;;;;;;2.00;1.30;;;;;;;32.77;29.12;99463.72;4491590;31;33680;-63